Time;durP1;ratioP1;P1;durP2;ratioP2;P2;SDS_P1;SDS_P2;PMS_P1;PMS_P2;Temp;Humidity;BMP_temperature;BMP_pressure;BME280_temperature;BME280_humidity;BME280_pressure;Samples;Min_cycle;Max_cycle;Signal;HPM_P1;HPM_P2
2022/05/07 00:00:34;;;;;;;22.80;11.57;;;;;;;12.53;71.11;101502.06;5068585;28;20059;-76
2022/05/07 00:03:01;;;;;;;16.52;10.52;;;;;;;12.53;70.77;101507.34;5063243;28;20087;-76
2022/05/07 00:05:28;;;;;;;19.55;9.80;;;;;;;12.54;70.50;101500.25;5066392;28;20051;-76
2022/05/07 00:07:55;;;;;;;18.05;10.30;;;;;;;12.52;71.30;101507.41;5063211;28;20398;-76
2022/05/07 00:10:22;;;;;;;19.60;11.32;;;;;;;12.50;71.23;101499.56;5043747;28;20041;-76
2022/05/07 00:12:49;;;;;;;17.48;12.13;;;;;;;12.52;71.28;101502.09;5080200;28;20054;-77
2022/05/07 00:15:17;;;;;;;16.50;12.05;;;;;;;12.52;70.83;101503.00;5073172;28;20048;-76
2022/05/07 00:18:05;;;;;;;23.92;10.75;;;;;;;12.52;70.91;101499.47;5070252;28;20044;-77
2022/05/07 00:20:33;;;;;;;23.40;10.40;;;;;;;12.53;70.83;101496.78;5073633;28;20036;-76
2022/05/07 00:23:01;;;;;;;18.45;11.20;;;;;;;12.54;70.90;101497.63;5061378;28;20044;-76
2022/05/07 00:25:29;;;;;;;19.55;11.13;;;;;;;12.52;71.73;101503.00;5069613;28;20045;-76
2022/05/07 00:27:56;;;;;;;17.38;10.93;;;;;;;12.50;70.82;101493.44;5069545;28;20048;-76
2022/05/07 00:30:24;;;;;;;19.95;11.20;;;;;;;12.54;71.02;101501.09;5078950;28;20048;-76
2022/05/07 00:32:51;;;;;;;19.67;10.77;;;;;;;12.51;71.80;101495.97;5073237;28;20074;-77
2022/05/07 00:35:18;;;;;;;18.50;10.15;;;;;;;12.55;71.45;101494.88;5078254;28;20139;-76
2022/05/07 00:37:46;;;;;;;17.05;9.40;;;;;;;12.56;71.32;101487.81;5084615;28;20071;-76
2022/05/07 00:40:13;;;;;;;18.15;10.45;;;;;;;12.58;71.55;101489.44;5061443;28;20051;-76
2022/05/07 00:42:40;;;;;;;17.70;10.55;;;;;;;12.57;71.77;101490.38;5079725;28;20048;-76
2022/05/07 00:45:07;;;;;;;23.58;11.40;;;;;;;12.57;71.52;101486.91;5074272;28;20048;-76
2022/05/07 00:47:35;;;;;;;14.93;9.38;;;;;;;12.57;71.69;101485.09;5071708;28;20507;-76
2022/05/07 00:52:49;;;;;;;16.13;9.93;;;;;;;12.59;71.74;101485.88;5053990;28;20087;-76
2022/05/07 00:55:17;;;;;;;13.70;8.77;;;;;;;12.55;71.78;101486.97;5047635;28;20040;-76
2022/05/07 00:57:44;;;;;;;15.82;10.05;;;;;;;12.55;71.68;101486.13;5048865;28;20056;-77
2022/05/07 01:00:12;;;;;;;17.20;10.20;;;;;;;12.61;71.54;101476.09;5068752;28;20140;-77
2022/05/07 01:02:41;;;;;;;15.23;9.90;;;;;;;12.63;71.33;101476.84;5060805;28;20060;-77
2022/05/07 01:05:10;;;;;;;17.88;9.60;;;;;;;12.66;71.21;101481.97;5083323;28;20066;-77
2022/05/07 01:07:37;;;;;;;15.68;9.70;;;;;;;12.68;71.07;101474.81;5073349;28;20048;-76
2022/05/07 01:10:05;;;;;;;18.17;9.68;;;;;;;12.70;70.91;101476.50;5070436;28;20051;-76
2022/05/07 01:12:32;;;;;;;19.35;10.27;;;;;;;12.71;70.76;101468.50;5053077;28;20490;-76
2022/05/07 01:15:00;;;;;;;12.68;8.80;;;;;;;12.74;70.95;101475.41;5056780;28;20635;-77
2022/05/07 01:17:32;;;;;;;17.15;9.07;;;;;;;12.75;70.86;101467.41;5079551;28;20106;-76
2022/05/07 01:20:00;;;;;;;17.15;9.07;;;;;;;12.75;70.19;101474.50;5066367;28;20036;-76
2022/05/07 01:22:32;;;;;;;14.40;8.25;;;;;;;12.76;69.86;101469.09;5062042;28;20059;-76
2022/05/07 01:24:59;;;;;;;11.73;8.35;;;;;;;12.80;69.55;101461.88;5055820;28;20048;-76
2022/05/07 01:27:26;;;;;;;13.60;9.30;;;;;;;12.81;69.27;101467.06;5056324;28;20041;-76
2022/05/07 01:29:53;;;;;;;15.75;9.00;;;;;;;12.81;70.22;101464.44;5076945;28;20043;-76
2022/05/07 01:32:22;;;;;;;16.45;9.32;;;;;;;12.75;71.61;101462.13;5060586;28;20613;-76
2022/05/07 01:34:51;;;;;;;15.68;8.75;;;;;;;12.67;71.63;101459.03;5049291;28;20577;-77
2022/05/07 01:37:19;;;;;;;14.98;8.32;;;;;;;12.71;70.00;101462.38;5075341;28;20511;-77
2022/05/07 01:39:46;;;;;;;16.90;8.07;;;;;;;12.73;70.26;101463.13;5076857;28;20079;-77
2022/05/07 01:42:14;;;;;;;10.75;7.90;;;;;;;12.75;69.40;101466.56;5059823;28;20153;-77
2022/05/07 01:44:41;;;;;;;13.80;8.10;;;;;;;12.80;68.49;101465.38;5068606;28;20448;-77
2022/05/07 01:49:54;;;;;;;15.55;8.43;;;;;;;12.80;68.05;101453.94;5068658;28;20044;-77
2022/05/07 01:52:21;;;;;;;16.70;7.13;;;;;;;12.84;67.67;101463.41;5073315;28;20466;-76
2022/05/07 01:54:49;;;;;;;15.93;6.80;;;;;;;12.83;67.00;101459.03;5061130;28;20093;-77
2022/05/07 01:57:16;;;;;;;13.45;8.10;;;;;;;12.85;67.49;101465.97;5056143;28;20053;-77
2022/05/07 01:59:43;;;;;;;13.48;6.25;;;;;;;12.86;66.62;101466.81;5070749;28;20418;-77
2022/05/07 02:02:11;;;;;;;12.20;7.00;;;;;;;12.87;65.98;101461.44;5064343;28;20048;-76
2022/05/07 02:04:39;;;;;;;9.80;6.35;;;;;;;12.88;65.44;101457.03;5068028;28;20136;-76
2022/05/07 02:07:07;;;;;;;9.10;6.30;;;;;;;12.88;64.88;101454.38;5070722;28;20056;-77
2022/05/07 02:09:35;;;;;;;10.27;6.85;;;;;;;12.90;65.01;101463.06;5054293;28;20044;-77
2022/05/07 02:12:03;;;;;;;11.95;5.90;;;;;;;12.92;64.42;101463.81;5055482;28;20040;-76
2022/05/07 02:14:30;;;;;;;9.95;6.03;;;;;;;12.92;64.03;101459.41;5055351;28;20040;-76
2022/05/07 02:16:57;;;;;;;8.20;5.90;;;;;;;12.91;65.56;101457.69;5068852;28;20584;-76
2022/05/07 02:19:29;;;;;;;9.07;6.30;;;;;;;12.88;65.07;101457.03;5070408;28;20146;-76
2022/05/07 02:21:57;;;;;;;12.32;5.97;;;;;;;12.87;64.83;101458.78;5064886;28;20051;-76
2022/05/07 02:24:24;;;;;;;10.35;6.00;;;;;;;12.89;64.53;101456.94;5070631;28;20049;-76
2022/05/07 02:26:51;;;;;;;9.88;6.55;;;;;;;12.89;64.74;101451.66;5051475;28;20056;-77
2022/05/07 02:29:20;;;;;;;7.80;5.45;;;;;;;12.89;64.15;101446.38;5049746;28;20470;-77
2022/05/07 02:32:06;;;;;;;7.78;4.90;;;;;;;12.89;63.81;101443.72;5059452;28;20052;-77
2022/05/07 02:34:34;;;;;;;;;;;;;;;12.91;63.88;101443.63;5036049;28;20175;-77
2022/05/07 02:37:02;;;;;;;6.85;4.50;;;;;;;12.91;63.62;101441.81;5055458;28;19920;-76
2022/05/07 02:39:30;;;;;;;8.20;5.88;;;;;;;12.91;63.79;101435.69;5056998;28;20048;-76
2022/05/07 02:45:06;;;;;;;6.53;4.30;;;;;;;12.92;63.16;101434.75;5028833;28;20087;-77
2022/05/07 02:47:37;;;;;;;8.77;4.65;;;;;;;12.95;63.19;101439.88;5011726;28;20074;-78
2022/05/07 02:50:05;;;;;;;9.57;4.45;;;;;;;12.92;63.62;101442.69;5041447;28;20052;-77
2022/05/07 02:52:33;;;;;;;8.38;4.45;;;;;;;12.90;63.74;101445.41;5057397;28;20044;-78
2022/05/07 02:55:01;;;;;;;6.88;4.55;;;;;;;12.91;63.71;101448.91;5073866;28;20052;-78
2022/05/07 02:57:28;;;;;;;6.05;4.30;;;;;;;12.91;63.02;101440.97;5073871;28;20065;-78
2022/05/07 02:59:56;;;;;;;7.65;4.15;;;;;;;12.91;63.40;101449.75;5038361;28;20048;-77
2022/05/07 03:02:23;;;;;;;7.25;4.30;;;;;;;12.90;63.49;101452.50;5067820;28;20176;-77
2022/05/07 03:04:52;;;;;;;10.23;4.70;;;;;;;12.88;63.77;101452.59;5071954;28;20048;-77
2022/05/07 03:07:19;;;;;;;10.00;4.70;;;;;;;12.88;63.65;101452.59;5040089;28;20040;-77
2022/05/07 03:09:46;;;;;;;5.28;4.05;;;;;;;12.89;63.44;101453.44;5071718;28;20152;-78
2022/05/07 03:12:14;;;;;;;6.88;4.10;;;;;;;12.90;63.02;101457.78;5052117;28;20451;-78
2022/05/07 03:14:41;;;;;;;6.65;4.10;;;;;;;12.92;63.18;101463.81;5070793;28;20064;-77
2022/05/07 03:17:08;;;;;;;6.10;4.20;;;;;;;12.93;63.42;101455.81;5073856;28;20045;-77
2022/05/07 03:19:35;;;;;;;7.50;4.38;;;;;;;12.92;63.10;101458.53;5065588;28;20048;-76
2022/05/07 03:22:02;;;;;;;8.43;4.50;;;;;;;12.94;63.20;101456.69;5073403;28;20055;-78
2022/05/07 03:24:30;;;;;;;7.45;4.63;;;;;;;12.92;63.31;101454.13;5070972;28;20059;-77
2022/05/07 03:26:57;;;;;;;5.60;3.97;;;;;;;12.91;64.22;101452.41;5070974;28;20511;-76
2022/05/07 03:29:25;;;;;;;10.13;4.30;;;;;;;12.90;63.89;101458.63;5056203;28;20050;-77
2022/05/07 03:31:52;;;;;;;6.57;4.10;;;;;;;12.88;63.90;101463.16;5039628;28;20050;-77
2022/05/07 03:34:19;;;;;;;8.32;4.00;;;;;;;12.87;63.85;101458.78;5073694;28;20040;-78
2022/05/07 03:36:46;;;;;;;7.28;4.95;;;;;;;12.87;64.14;101458.78;5070787;28;20052;-77
2022/05/07 03:39:14;;;;;;;7.85;4.10;;;;;;;12.88;63.36;101457.03;5065987;28;20045;-77
2022/05/07 03:41:41;;;;;;;5.60;4.53;;;;;;;12.84;63.98;101461.63;5051981;28;20064;-78
2022/05/07 03:44:08;;;;;;;9.63;4.60;;;;;;;12.81;64.96;101461.78;5064503;28;20044;-78
2022/05/07 03:46:35;;;;;;;7.78;4.20;;;;;;;12.77;64.54;101462.88;5064977;28;20052;-78
2022/05/07 03:49:03;;;;;;;10.07;4.35;;;;;;;12.73;64.75;101458.69;5066624;28;20056;-77
2022/05/07 03:53:29;;;;;;;5.50;4.00;;;;;;;12.68;65.49;101460.75;5062066;28;20040;-77
2022/05/07 03:54:17;;;;;;;6.57;4.63;;;;;;;12.66;65.08;101454.69;5073093;28;20486;-77
2022/05/07 03:56:45;;;;;;;6.60;4.43;;;;;;;12.66;64.67;101457.34;5071732;28;20044;-76
2022/05/07 03:59:12;;;;;;;8.07;4.28;;;;;;;12.66;65.14;101458.19;5069922;28;20048;-77
2022/05/07 04:01:39;;;;;;;5.82;3.92;;;;;;;12.66;64.67;101458.19;5063854;28;20040;-78
2022/05/07 04:04:07;;;;;;;6.82;4.68;;;;;;;12.68;64.64;101460.75;5065681;28;20060;-76
2022/05/07 04:06:34;;;;;;;6.93;4.15;;;;;;;12.64;65.32;101457.41;5051922;28;20087;-77
2022/05/07 04:09:01;;;;;;;7.82;4.68;;;;;;;12.63;65.75;101458.34;5063663;28;20048;-77
2022/05/07 04:11:28;;;;;;;7.70;4.85;;;;;;;12.62;65.58;101448.72;5063703;28;20356;-76
2022/05/07 04:13:56;;;;;;;7.75;4.20;;;;;;;12.60;65.90;101452.38;5056096;28;20044;-78
2022/05/07 04:16:23;;;;;;;6.50;4.75;;;;;;;12.60;65.54;101457.66;5072771;28;20535;-76
2022/05/07 04:18:51;;;;;;;9.18;4.30;;;;;;;12.62;65.10;101454.00;5070323;28;20137;-76
2022/05/07 04:21:19;;;;;;;10.77;4.63;;;;;;;12.64;65.27;101452.13;5070077;28;20036;-76
2022/05/07 04:23:46;;;;;;;5.55;3.88;;;;;;;12.62;65.33;101456.66;5059744;28;20056;-77
2022/05/07 04:26:13;;;;;;;7.07;5.13;;;;;;;12.63;65.39;101462.78;5081485;28;20052;-77
2022/05/07 04:28:40;;;;;;;7.35;4.53;;;;;;;12.65;65.35;101459.13;5088519;28;20063;-78
2022/05/07 04:31:08;;;;;;;11.32;4.65;;;;;;;12.68;65.00;101455.47;5083888;28;20048;-76
2022/05/07 04:33:35;;;;;;;9.38;5.00;;;;;;;12.70;65.17;101455.38;5080025;28;20036;-77
2022/05/07 04:36:02;;;;;;;6.70;4.22;;;;;;;12.71;65.53;101462.38;5081491;28;20862;-77
2022/05/07 04:39:20;;;;;;;7.63;4.20;;;;;;;12.78;65.02;101461.09;5074111;28;20041;-76
2022/05/07 04:41:47;;;;;;;6.78;4.07;;;;;;;12.80;65.18;101461.88;5071104;28;20103;-78
2022/05/07 04:44:14;;;;;;;12.02;4.50;;;;;;;12.85;64.97;101460.69;5078411;28;20056;-77
2022/05/07 04:46:41;;;;;;;7.07;4.38;;;;;;;12.90;65.00;101455.13;5068978;28;20041;-78
2022/05/07 04:49:09;;;;;;;9.05;5.13;;;;;;;12.95;64.77;101455.72;5081393;28;20052;-77
2022/05/07 04:51:37;;;;;;;5.72;4.35;;;;;;;12.99;64.42;101464.34;5086394;28;20049;-77
2022/05/07 04:54:07;;;;;;;8.68;4.30;;;;;;;13.03;64.28;101466.72;5096748;28;20076;-78
2022/05/07 04:56:34;;;;;;;7.53;4.15;;;;;;;13.08;64.08;101463.84;5071892;28;20114;-77
2022/05/07 04:59:06;;;;;;;8.75;4.88;;;;;;;13.12;63.66;101460.94;5093287;28;20040;-78
2022/05/07 05:01:33;;;;;;;6.45;4.43;;;;;;;13.15;63.66;101455.47;5072986;28;20052;-77
2022/05/07 05:04:00;;;;;;;8.50;4.68;;;;;;;13.17;63.41;101453.59;5068653;28;20060;-78
2022/05/07 05:06:28;;;;;;;7.22;4.18;;;;;;;13.27;63.23;101458.38;5033310;28;20056;-78
2022/05/07 05:08:55;;;;;;;8.63;4.75;;;;;;;13.35;62.67;101454.38;5076816;28;20106;-76
2022/05/07 05:11:22;;;;;;;6.38;4.30;;;;;;;13.44;62.57;101458.28;5066765;28;20431;-77
2022/05/07 05:13:49;;;;;;;6.65;4.38;;;;;;;13.52;62.52;101455.19;5068151;28;20053;-77
2022/05/07 05:16:17;;;;;;;6.57;4.15;;;;;;;13.59;62.32;101465.31;5071975;28;20056;-77
2022/05/07 05:18:44;;;;;;;5.60;4.55;;;;;;;13.63;61.94;101452.78;5079193;28;20213;-77
2022/05/07 05:21:11;;;;;;;6.88;4.13;;;;;;;13.63;62.32;101468.63;5058743;28;20036;-77
2022/05/07 05:23:38;;;;;;;7.00;4.10;;;;;;;13.72;61.97;101459.31;5074028;28;20678;-78
2022/05/07 05:26:06;;;;;;;5.97;4.28;;;;;;;13.71;61.58;101462.91;5043578;28;20051;-78
2022/05/07 05:28:35;;;;;;;6.85;4.47;;;;;;;13.82;61.86;101463.13;5072840;28;20053;-76
2022/05/07 05:31:03;;;;;;;7.07;5.13;;;;;;;13.96;61.23;101457.00;5078607;28;20036;-77
2022/05/07 05:33:30;;;;;;;7.68;4.63;;;;;;;14.06;60.78;101463.47;5060178;28;20036;-79
2022/05/07 05:35:57;;;;;;;10.20;4.90;;;;;;;14.18;60.14;101470.66;5076508;28;20528;-77
2022/05/07 05:38:25;;;;;;;6.68;4.45;;;;;;;14.28;59.79;101476.28;5061530;28;20047;-76
2022/05/07 05:40:52;;;;;;;8.50;4.85;;;;;;;14.36;59.73;101473.97;5082287;28;20060;-76
2022/05/07 05:43:19;;;;;;;8.63;4.63;;;;;;;14.46;59.60;101475.13;5074208;28;20136;-76
2022/05/07 05:45:47;;;;;;;8.05;4.80;;;;;;;14.57;59.31;101479.78;5066861;28;20382;-76
2022/05/07 05:48:14;;;;;;;9.85;4.93;;;;;;;14.65;59.27;101478.38;5071053;28;20048;-78
2022/05/07 05:50:41;;;;;;;7.45;4.60;;;;;;;14.71;59.24;101481.59;5069876;28;20064;-77
2022/05/07 05:53:09;;;;;;;9.80;4.57;;;;;;;14.79;58.77;101479.31;5084997;28;20044;-76
2022/05/07 05:55:36;;;;;;;8.75;4.78;;;;;;;14.85;58.41;101479.75;5071509;28;20076;-76
2022/05/07 05:58:04;;;;;;;6.18;4.47;;;;;;;14.92;58.52;101482.91;5076448;28;20657;-76
2022/05/07 06:00:31;;;;;;;7.22;4.70;;;;;;;15.02;58.80;101481.34;5070870;28;20221;-77
2022/05/07 06:02:58;;;;;;;6.25;4.18;;;;;;;15.03;57.68;101483.03;5068040;28;20037;-76
2022/05/07 06:05:25;;;;;;;11.55;4.25;;;;;;;15.07;57.86;101489.00;5054496;28;20049;-75
2022/05/07 06:07:53;;;;;;;7.15;4.32;;;;;;;15.06;56.92;101482.84;5082845;28;20083;-77
2022/05/07 06:10:20;;;;;;;5.97;4.78;;;;;;;15.22;56.80;101481.84;5069307;28;20425;-77
2022/05/07 06:12:47;;;;;;;13.50;4.43;;;;;;;15.41;56.24;101485.88;5068896;28;20062;-76
2022/05/07 06:15:15;;;;;;;5.63;3.50;;;;;;;15.66;55.23;101481.63;5079493;28;20066;-77
2022/05/07 06:17:42;;;;;;;6.28;3.72;;;;;;;15.81;54.54;101475.31;5060170;28;20053;-76
2022/05/07 06:20:09;;;;;;;9.18;4.10;;;;;;;16.02;54.67;101474.78;5083339;28;20127;-76
2022/05/07 06:22:37;;;;;;;7.43;4.10;;;;;;;16.14;54.41;101469.50;5076767;28;20040;-76
2022/05/07 06:27:50;;;;;;;6.15;3.85;;;;;;;16.44;53.36;101471.00;5074464;28;20613;-76
2022/05/07 06:30:18;;;;;;;9.27;3.78;;;;;;;16.59;53.22;101477.03;5078274;28;20074;-77
2022/05/07 06:32:45;;;;;;;5.07;3.78;;;;;;;16.64;51.46;101474.91;5057256;28;20736;-76
2022/05/07 06:35:12;;;;;;;6.53;3.47;;;;;;;16.72;50.97;101472.59;5060575;28;20124;-76
2022/05/07 06:37:40;;;;;;;4.47;2.50;;;;;;;16.90;50.49;101468.59;5076764;28;20044;-76
2022/05/07 06:40:07;;;;;;;9.10;2.90;;;;;;;17.14;49.54;101468.63;5079078;28;20044;-76
2022/05/07 06:42:35;;;;;;;4.40;3.28;;;;;;;17.39;49.51;101469.50;5059128;28;20051;-76
2022/05/07 06:45:03;;;;;;;6.13;3.42;;;;;;;17.59;48.40;101468.84;5067178;28;20059;-77
2022/05/07 06:47:31;;;;;;;5.30;3.03;;;;;;;17.82;47.83;101469.78;5074758;28;20048;-76
2022/05/07 06:49:58;;;;;;;7.28;3.00;;;;;;;18.01;47.31;101469.22;5083105;28;20078;-77
2022/05/07 06:52:27;;;;;;;3.88;2.78;;;;;;;18.02;47.56;101470.94;5053653;28;20083;-76
2022/05/07 06:54:54;;;;;;;4.53;2.50;;;;;;;18.13;45.88;101470.97;5082562;28;20040;-77
2022/05/07 06:57:24;;;;;;;3.15;2.85;;;;;;;18.01;45.95;101471.91;5065509;28;20054;-77
2022/05/07 06:59:51;;;;;;;4.20;2.83;;;;;;;17.78;46.97;101473.66;5044097;28;20056;-76
2022/05/07 07:02:18;;;;;;;5.25;2.70;;;;;;;17.70;46.90;101476.88;5046594;28;20044;-77
2022/05/07 07:04:46;;;;;;;11.05;3.53;;;;;;;17.80;46.86;101473.56;5066191;28;20117;-77
2022/05/07 07:07:13;;;;;;;7.28;3.00;;;;;;;17.86;46.85;101476.59;5077287;28;20518;-77
2022/05/07 07:09:40;;;;;;;3.53;2.70;;;;;;;18.12;45.55;101471.09;5055788;28;20150;-77
2022/05/07 07:12:10;;;;;;;9.65;3.40;;;;;;;18.46;45.57;101470.16;5071057;28;20597;-77
2022/05/07 07:14:39;;;;;;;7.82;2.83;;;;;;;18.71;45.40;101484.25;5076254;28;20044;-77
2022/05/07 07:17:06;;;;;;;9.85;2.83;;;;;;;18.62;45.10;101474.28;5079126;28;20135;-77
2022/05/07 07:19:34;;;;;;;6.47;3.00;;;;;;;18.48;45.03;101470.88;5073986;28;20059;-77
2022/05/07 07:22:02;;;;;;;6.88;2.95;;;;;;;18.55;45.36;101475.72;5078913;28;20528;-77
2022/05/07 07:24:29;;;;;;;5.25;2.28;;;;;;;18.65;44.97;101471.38;5072775;28;20053;-77
2022/05/07 07:26:56;;;;;;;4.30;2.28;;;;;;;18.64;45.19;101478.53;5075023;28;20044;-77
2022/05/07 07:29:23;;;;;;;3.65;2.38;;;;;;;18.98;44.37;101474.03;5076104;28;20052;-77
2022/05/07 07:31:51;;;;;;;7.70;2.78;;;;;;;19.21;44.59;101477.47;5079100;28;20051;-77
2022/05/07 07:34:21;;;;;;;8.30;3.00;;;;;;;19.49;43.11;101477.88;5052109;28;20040;-77
2022/05/07 07:36:52;;;;;;;8.40;3.55;;;;;;;19.55;42.31;101487.22;5077289;28;20458;-77
2022/05/07 07:39:20;;;;;;;7.53;3.95;;;;;;;19.44;41.85;101480.94;5044707;28;20045;-78
2022/05/07 07:41:47;;;;;;;4.40;2.97;;;;;;;19.47;41.89;101477.16;5080227;28;20075;-77
2022/05/07 07:44:14;;;;;;;4.43;2.53;;;;;;;19.39;42.21;101479.63;5069541;28;20378;-77
2022/05/07 07:49:28;;;;;;;10.00;4.15;;;;;;;19.64;41.49;101475.81;5074119;28;20525;-77
2022/05/07 07:51:56;;;;;;;7.15;2.88;;;;;;;19.87;41.59;101479.22;5081173;28;20063;-77
2022/05/07 07:54:23;;;;;;;6.03;3.30;;;;;;;19.84;41.44;101476.78;5073925;28;20536;-78
2022/05/07 07:56:51;;;;;;;5.15;3.38;;;;;;;19.80;41.30;101478.88;5071864;28;20052;-77
2022/05/07 07:59:18;;;;;;;15.93;5.35;;;;;;;19.85;41.33;101476.66;5080973;28;20040;-77
2022/05/07 08:01:45;;;;;;;11.10;4.63;;;;;;;19.98;40.79;101477.31;5056460;28;20081;-77
2022/05/07 08:04:13;;;;;;;11.18;4.75;;;;;;;20.00;41.04;101482.53;5042357;28;20071;-77
2022/05/07 08:06:40;;;;;;;12.00;5.03;;;;;;;20.06;40.68;101481.16;5074163;28;20078;-77
2022/05/07 08:11:56;;;;;;;13.50;5.13;;;;;;;20.28;39.63;101472.16;5067025;28;20574;-77
2022/05/07 08:14:23;;;;;;;10.63;6.22;;;;;;;20.46;39.61;101481.25;5071484;28;20052;-77
2022/05/07 08:16:50;;;;;;;14.02;7.40;;;;;;;20.72;38.46;101473.66;5071196;28;20539;-75
2022/05/07 08:19:18;;;;;;;15.07;5.78;;;;;;;20.89;39.31;101477.47;5056309;28;20051;-75
2022/05/07 08:21:45;;;;;;;11.60;4.78;;;;;;;21.09;39.04;101478.38;5063847;28;20056;-75
2022/05/07 08:24:12;;;;;;;12.90;5.20;;;;;;;20.99;38.89;101471.19;5047388;28;20040;-75
2022/05/07 08:26:40;;;;;;;9.95;5.13;;;;;;;21.21;38.69;101485.31;5067286;28;20044;-76
2022/05/07 08:29:08;;;;;;;14.00;5.50;;;;;;;21.16;38.08;101477.72;5062424;28;20102;-76
2022/05/07 08:31:35;;;;;;;11.13;5.35;;;;;;;21.46;37.84;101476.75;5064696;28;20048;-76
2022/05/07 08:34:02;;;;;;;13.50;4.85;;;;;;;21.60;37.72;101478.19;5063895;28;20056;-77
2022/05/07 08:36:29;;;;;;;12.40;5.65;;;;;;;21.59;36.94;101479.16;5049876;28;20059;-76
2022/05/07 08:38:57;;;;;;;9.15;5.45;;;;;;;21.51;36.83;101483.53;5061482;28;20050;-76
2022/05/07 08:41:24;;;;;;;16.83;6.97;;;;;;;21.42;37.38;101480.72;5049837;28;20052;-76
2022/05/07 08:43:52;;;;;;;10.82;6.07;;;;;;;21.31;36.74;101471.94;5071322;28;20049;-75
2022/05/07 08:46:19;;;;;;;11.40;5.55;;;;;;;21.27;37.20;101482.09;5063816;28;20066;-77
2022/05/07 08:48:48;;;;;;;10.95;5.88;;;;;;;21.23;37.04;101470.78;5070153;28;20529;-75
2022/05/07 08:51:17;;;;;;;13.23;5.78;;;;;;;21.66;36.55;101466.91;5078421;28;20041;-76
2022/05/07 08:53:45;;;;;;;12.10;5.75;;;;;;;21.63;36.52;101475.22;5061617;28;21220;-76
2022/05/07 08:56:12;;;;;;;11.30;5.32;;;;;;;21.36;36.57;101480.44;5048472;28;20051;-77
2022/05/07 08:58:46;;;;;;;7.30;5.03;;;;;;;21.18;37.13;101475.72;5048352;28;20072;-76
2022/05/07 09:01:13;;;;;;;13.57;5.78;;;;;;;21.09;37.09;101473.03;5058719;28;20124;-76
2022/05/07 09:03:42;;;;;;;9.68;5.07;;;;;;;20.90;37.39;101473.84;5066672;28;20057;-77
2022/05/07 09:06:21;;;;;;;10.00;4.90;;;;;;;20.97;37.60;101477.66;5046360;28;20072;-76
2022/05/07 09:08:49;;;;;;;12.50;5.85;;;;;;;20.98;37.58;101473.97;5037193;28;20093;-76
2022/05/07 09:11:17;;;;;;;8.50;4.95;;;;;;;21.01;36.79;101471.03;5059022;28;20052;-76
2022/05/07 09:13:45;;;;;;;7.47;4.63;;;;;;;20.73;37.33;101476.19;5037291;28;20987;-77
2022/05/07 09:16:13;;;;;;;7.70;4.57;;;;;;;21.22;37.03;101479.81;5070368;28;20478;-77
2022/05/07 09:18:46;;;;;;;8.25;4.75;;;;;;;21.54;36.10;101476.06;5064528;28;20688;-75
2022/05/07 09:21:16;;;;;;;8.93;4.97;;;;;;;21.72;35.97;101477.06;5059251;28;20040;-78
2022/05/07 09:23:48;;;;;;;14.52;4.63;;;;;;;21.87;35.40;101480.13;5069534;28;20086;-75
2022/05/07 09:26:30;;;;;;;6.97;4.10;;;;;;;21.92;34.53;101482.38;5030297;28;20040;-75
2022/05/07 09:28:58;;;;;;;9.20;5.03;;;;;;;21.99;34.81;101472.78;5066252;28;20546;-76
2022/05/07 09:31:27;;;;;;;8.38;3.90;;;;;;;22.15;35.14;101472.22;5072065;28;20052;-76
2022/05/07 09:33:55;;;;;;;13.93;4.60;;;;;;;22.04;35.06;101475.03;5051266;28;20067;-76
2022/05/07 09:36:23;;;;;;;11.82;4.78;;;;;;;22.02;34.77;101474.31;5050744;28;20045;-76
2022/05/07 09:39:00;;;;;;;8.98;4.90;;;;;;;21.59;35.51;101471.13;5082777;28;20125;-75
2022/05/07 09:41:27;;;;;;;9.50;4.85;;;;;;;21.96;35.52;101473.06;5067524;28;20136;-76
2022/05/07 09:43:55;;;;;;;8.43;4.25;;;;;;;22.32;35.83;101465.25;5069900;28;20063;-76
2022/05/07 09:46:22;;;;;;;9.75;4.32;;;;;;;22.58;35.00;101466.28;5067730;28;20059;-76
2022/05/07 09:48:50;;;;;;;6.70;4.18;;;;;;;22.58;34.67;101473.50;5065856;28;20075;-76
2022/05/07 09:51:19;;;;;;;7.57;4.10;;;;;;;22.51;34.78;101465.16;5064233;28;20044;-76
2022/05/07 09:59:19;;;;;;;8.02;4.60;;;;;;;22.91;34.64;101456.81;5067136;28;20596;-76
2022/05/07 10:01:57;;;;;;;9.65;4.63;;;;;;;23.11;33.86;101449.50;5063853;28;20044;-77
2022/05/07 10:04:43;;;;;;;7.88;4.50;;;;;;;23.07;33.60;101461.53;5064319;28;20045;-77
2022/05/07 10:07:38;;;;;;;7.35;4.85;;;;;;;23.21;34.35;101450.25;5052482;28;20422;-77
2022/05/07 10:10:25;;;;;;;9.35;3.55;;;;;;;23.43;32.89;101453.50;5069356;28;20128;-76
2022/05/07 10:12:55;;;;;;;7.88;3.00;;;;;;;23.94;33.02;101441.16;5049547;28;20051;-76
2022/05/07 10:15:24;;;;;;;7.55;3.63;;;;;;;24.18;32.48;101432.38;5057736;28;20050;-76
2022/05/07 10:18:06;;;;;;;7.60;3.80;;;;;;;23.62;33.40;101447.94;5060646;28;20052;-76
2022/05/07 10:20:39;;;;;;;4.72;3.42;;;;;;;23.70;33.20;101439.97;5058446;28;20080;-76
2022/05/07 10:23:08;;;;;;;8.07;3.13;;;;;;;24.24;31.75;101437.16;5061308;28;20044;-75
2022/05/07 10:25:36;;;;;;;10.18;5.68;;;;;;;23.78;32.88;101452.66;5070914;28;20052;-76
2022/05/07 10:28:08;;;;;;;6.05;4.10;;;;;;;23.89;33.13;101433.56;5059140;28;20579;-75
2022/05/07 10:30:49;;;;;;;10.50;3.80;;;;;;;24.20;33.28;101436.59;5055509;28;21485;-76
2022/05/07 10:33:18;;;;;;;8.32;3.85;;;;;;;24.86;32.66;101431.56;5050097;28;20184;-76
2022/05/07 10:35:58;;;;;;;5.80;3.63;;;;;;;24.81;31.36;101437.44;5053395;28;20087;-75
2022/05/07 10:38:37;;;;;;;9.63;3.30;;;;;;;24.96;31.44;101443.03;5058988;28;20136;-75
2022/05/07 10:41:19;;;;;;;10.40;4.28;;;;;;;24.47;31.90;101432.06;5056684;28;20040;-75
2022/05/07 10:43:56;;;;;;;30.63;21.33;;;;;;;24.85;32.27;101444.16;5073721;28;20057;-75
2022/05/07 10:46:24;;;;;;;9.48;4.55;;;;;;;25.18;31.10;101422.72;5068474;28;20048;-75
2022/05/07 10:48:56;;;;;;;7.60;3.75;;;;;;;24.71;31.19;101442.09;5078665;28;20052;-75
2022/05/07 10:51:29;;;;;;;7.93;3.60;;;;;;;24.78;31.55;101431.53;5086989;28;20063;-75
2022/05/07 10:54:00;;;;;;;6.25;4.20;;;;;;;24.63;31.38;101425.91;5068617;28;20585;-76
2022/05/07 10:56:29;;;;;;;10.63;3.95;;;;;;;24.39;32.05;101427.50;5077156;28;20082;-76
2022/05/07 10:58:57;;;;;;;8.80;3.45;;;;;;;24.42;32.36;101435.25;5068443;28;20943;-76
2022/05/07 11:01:26;;;;;;;8.70;4.10;;;;;;;24.28;32.34;101425.06;5051697;28;20057;-75
2022/05/07 11:04:04;;;;;;;10.15;4.78;;;;;;;24.60;32.34;101437.84;5067744;28;20044;-76
2022/05/07 11:06:52;;;;;;;12.70;4.90;;;;;;;24.46;32.29;101431.22;5070919;28;20070;-76
2022/05/07 11:09:21;;;;;;;5.95;3.72;;;;;;;24.62;32.49;101433.13;5076497;28;20051;-76
2022/05/07 11:11:54;;;;;;;9.73;5.10;;;;;;;24.82;32.06;101419.41;5066112;28;20079;-76
2022/05/07 11:14:32;;;;;;;11.43;5.55;;;;;;;23.65;34.13;101423.47;5068337;28;20043;-76
2022/05/07 11:17:00;;;;;;;14.25;5.28;;;;;;;23.24;35.05;101431.16;5073484;28;20044;-76
2022/05/07 11:19:33;;;;;;;7.22;4.82;;;;;;;23.36;34.95;101436.28;5081952;28;20481;-76
2022/05/07 11:22:06;;;;;;;5.82;4.22;;;;;;;23.85;33.83;101428.66;5057426;28;20130;-76
2022/05/07 11:24:33;;;;;;;9.98;4.93;;;;;;;24.20;33.69;101430.38;5078503;28;20132;-76
2022/05/07 11:27:09;;;;;;;8.35;4.35;;;;;;;25.01;32.59;101424.50;5058380;28;20048;-76
2022/05/07 11:29:37;;;;;;;8.00;4.53;;;;;;;25.38;31.97;101426.78;5056992;28;20041;-76
2022/05/07 11:32:12;;;;;;;13.07;4.13;;;;;;;25.38;31.46;101432.16;5074739;28;20124;-76
2022/05/07 11:34:41;;;;;;;7.70;4.57;;;;;;;24.92;31.80;101417.41;5079320;28;20048;-75
2022/05/07 11:37:15;;;;;;;4.88;4.18;;;;;;;25.11;31.88;101416.31;5056947;28;20545;-76
2022/05/07 11:39:49;;;;;;;7.55;4.47;;;;;;;25.42;32.42;101421.88;5076610;28;20059;-76
2022/05/07 11:42:46;;;;;;;11.13;4.70;;;;;;;24.38;33.36;101425.81;5055027;28;20043;-76
2022/05/07 11:45:35;;;;;;;6.00;4.43;;;;;;;23.62;34.74;101437.19;5056874;28;20044;-76
2022/05/07 11:48:18;;;;;;;6.82;4.65;;;;;;;23.47;35.28;101428.84;5071396;28;20052;-75
2022/05/07 11:50:53;;;;;;;10.73;4.05;;;;;;;23.59;35.28;101423.22;5062633;28;20607;-76
2022/05/07 11:53:22;;;;;;;13.45;4.22;;;;;;;23.14;35.96;101427.66;5051739;28;20048;-76